Time;durP1;ratioP1;P1;durP2;ratioP2;P2;SDS_P1;SDS_P2;PMS_P1;PMS_P2;Temp;Humidity;BMP_temperature;BMP_pressure;BME280_temperature;BME280_humidity;BME280_pressure;Samples;Min_cycle;Max_cycle;Signal;HPM_P1;HPM_P2
2022/07/01 00:02:19;;;;;;;17.23;11.43;;;;;;;18.83;70.35;96921.27;1722336;80;25764;-75
2022/07/01 00:04:46;;;;;;;13.08;11.00;;;;;;;18.78;70.23;96917.98;1774670;80;25835;-75
2022/07/01 00:07:12;;;;;;;12.60;10.58;;;;;;;18.69;70.25;96911.44;1775797;80;27386;-75
2022/07/01 00:09:39;;;;;;;16.15;10.68;;;;;;;18.69;70.50;96908.70;1756746;80;25688;-76
2022/07/01 00:12:06;;;;;;;12.60;9.80;;;;;;;18.70;70.46;96907.61;1759687;80;25820;-75
2022/07/01 00:14:34;;;;;;;11.30;10.10;;;;;;;18.65;70.44;96905.70;1730170;80;25691;-75
2022/07/01 00:17:01;;;;;;;13.13;10.85;;;;;;;18.63;70.53;96898.86;1757267;80;25247;-76
2022/07/01 00:19:28;;;;;;;13.55;10.88;;;;;;;18.58;70.59;96902.44;1740694;80;27388;-75
2022/07/01 00:21:54;;;;;;;17.62;11.05;;;;;;;18.58;70.68;96902.44;1757370;80;25794;-75
2022/07/01 00:24:21;;;;;;;13.28;10.38;;;;;;;18.57;70.69;96901.30;1773586;80;25711;-75
2022/07/01 00:26:47;;;;;;;16.07;11.18;;;;;;;18.54;70.60;96901.84;1764208;80;25704;-75
2022/07/01 00:29:14;;;;;;;12.13;10.78;;;;;;;18.46;70.58;96896.94;1775200;80;25746;-75
2022/07/01 00:31:41;;;;;;;12.90;10.00;;;;;;;18.45;70.74;96896.12;1756763;80;27413;-75
2022/07/01 00:34:07;;;;;;;12.05;9.73;;;;;;;18.46;70.73;96898.30;1760724;80;25666;-75
2022/07/01 00:36:34;;;;;;;12.40;9.73;;;;;;;18.44;70.62;96890.38;1776345;80;25735;-75
2022/07/01 00:39:01;;;;;;;11.63;9.93;;;;;;;18.41;70.64;96888.73;1778502;80;25744;-75
2022/07/01 00:41:28;;;;;;;11.65;10.35;;;;;;;18.35;70.58;96892.02;1744802;80;25415;-75
2022/07/01 00:43:55;;;;;;;11.43;9.20;;;;;;;18.29;70.62;96887.09;1771977;80;27430;-75
2022/07/01 00:46:24;;;;;;;14.45;10.05;;;;;;;18.26;70.71;96891.73;1730927;80;25852;-75
2022/07/01 00:48:52;;;;;;;12.37;9.70;;;;;;;18.23;70.74;96895.00;1771028;80;25812;-75
2022/07/01 00:51:19;;;;;;;13.58;9.50;;;;;;;18.19;70.84;96887.64;1775887;80;25968;-75
2022/07/01 00:53:47;;;;;;;13.40;10.10;;;;;;;18.18;70.91;96889.55;1741533;80;25882;-75
2022/07/01 00:56:14;;;;;;;11.78;10.45;;;;;;;18.17;70.93;96896.10;1749826;80;28164;-75
2022/07/01 00:58:41;;;;;;;11.78;9.83;;;;;;;18.14;70.87;96893.09;1756681;80;25664;-75
2022/07/01 01:01:08;;;;;;;12.58;9.95;;;;;;;18.12;70.92;96893.35;1744784;80;25738;-74
2022/07/01 01:03:34;;;;;;;14.55;10.25;;;;;;;18.09;70.92;96893.92;1750465;80;25779;-75
2022/07/01 01:06:03;;;;;;;14.63;9.58;;;;;;;18.07;70.90;96889.27;1745936;80;25685;-76
2022/07/01 01:08:30;;;;;;;13.32;9.20;;;;;;;18.04;70.94;96889.80;1740577;80;27480;-75
2022/07/01 01:10:57;;;;;;;12.53;9.83;;;;;;;18.02;70.92;96883.78;1765952;80;25688;-75
2022/07/01 01:13:23;;;;;;;12.43;9.63;;;;;;;17.98;70.90;96882.16;1754924;80;25712;-75
2022/07/01 01:15:50;;;;;;;11.73;9.80;;;;;;;17.94;70.95;96880.23;1747866;80;26272;-75
2022/07/01 01:18:17;;;;;;;10.80;9.30;;;;;;;17.88;70.93;96878.03;1776863;80;25672;-75
2022/07/01 01:20:43;;;;;;;13.22;9.65;;;;;;;17.81;71.12;96880.76;1732309;80;27417;-75
2022/07/01 01:23:10;;;;;;;11.60;9.65;;;;;;;17.80;71.19;96880.48;1737477;80;25797;-75
2022/07/01 01:25:36;;;;;;;13.45;9.58;;;;;;;17.75;71.26;96881.84;1722220;80;25732;-75
2022/07/01 01:28:04;;;;;;;11.55;9.08;;;;;;;17.70;71.24;96881.28;1759552;80;26483;-75
2022/07/01 01:30:31;;;;;;;13.40;9.55;;;;;;;17.68;71.40;96879.91;1771153;80;26554;-76
2022/07/01 01:32:57;;;;;;;13.55;10.72;;;;;;;17.66;71.45;96876.62;1776897;80;27513;-75
2022/07/01 01:35:24;;;;;;;15.35;10.38;;;;;;;17.58;71.40;96882.03;1761451;80;25714;-75
2022/07/01 01:37:51;;;;;;;11.93;9.25;;;;;;;17.52;71.58;96880.36;1750230;80;25778;-75
2022/07/01 01:40:18;;;;;;;12.78;9.75;;;;;;;17.50;71.81;96886.11;1740718;80;26329;-75
2022/07/01 01:42:46;;;;;;;12.58;9.80;;;;;;;17.47;71.82;96885.28;1730947;80;25730;-75
2022/07/01 01:45:12;;;;;;;11.73;9.03;;;;;;;17.44;71.83;96893.98;1736753;80;27590;-75
2022/07/01 01:47:39;;;;;;;14.03;9.98;;;;;;;17.43;71.90;96896.44;1730936;80;25335;-75
2022/07/01 01:50:08;;;;;;;13.85;9.90;;;;;;;17.43;71.92;96887.44;1724549;80;25900;-75
2022/07/01 01:52:37;;;;;;;13.62;9.88;;;;;;;17.40;71.96;96894.23;1747385;80;25902;-75
2022/07/01 01:55:04;;;;;;;12.90;9.70;;;;;;;17.38;72.07;96899.16;1740445;80;25941;-76
2022/07/01 01:57:31;;;;;;;10.85;9.23;;;;;;;17.35;72.03;96902.96;1770906;80;28261;-75
2022/07/01 01:59:57;;;;;;;10.10;8.98;;;;;;;17.34;72.04;96908.14;1763704;80;25750;-76
2022/07/01 02:02:24;;;;;;;11.45;9.70;;;;;;;17.31;72.07;96904.03;1772281;80;25450;-76
2022/07/01 02:04:51;;;;;;;10.58;8.45;;;;;;;17.28;72.11;96904.55;1766314;80;26360;-76
2022/07/01 02:07:17;;;;;;;11.45;9.53;;;;;;;17.26;72.17;96902.66;1749748;80;25690;-76
2022/07/01 02:09:44;;;;;;;12.13;9.20;;;;;;;17.24;72.21;96901.56;1777486;80;27578;-76
2022/07/01 02:12:11;;;;;;;12.50;9.20;;;;;;;17.22;72.26;96901.00;1770584;80;25668;-76
2022/07/01 02:14:37;;;;;;;10.20;9.00;;;;;;;17.20;72.20;96896.34;1772236;80;25866;-75
2022/07/01 02:17:04;;;;;;;15.25;10.63;;;;;;;17.17;72.29;96909.69;1742557;80;25875;-76
2022/07/01 02:19:31;;;;;;;12.00;10.00;;;;;;;17.13;72.32;96906.69;1721957;80;26488;-76
2022/07/01 02:21:57;;;;;;;12.28;9.70;;;;;;;17.03;72.26;96913.97;1737053;80;27544;-76
2022/07/01 02:24:24;;;;;;;13.60;9.93;;;;;;;16.99;72.48;96916.96;1768808;80;25786;-76
2022/07/01 02:26:50;;;;;;;10.90;9.23;;;;;;;16.97;72.60;96913.67;1770801;80;25843;-76
2022/07/01 02:29:17;;;;;;;9.88;8.85;;;;;;;16.94;72.70;96912.29;1754267;80;26399;-76
2022/07/01 02:31:44;;;;;;;13.43;9.13;;;;;;;16.93;72.67;96916.09;1730923;80;25717;-76
2022/07/01 02:34:10;;;;;;;13.72;9.38;;;;;;;16.89;72.67;96910.38;1766708;80;27650;-75
2022/07/01 02:36:37;;;;;;;14.83;9.45;;;;;;;16.87;72.75;96912.53;1773134;80;25735;-76
2022/07/01 02:39:04;;;;;;;13.30;9.23;;;;;;;16.85;72.78;96918.78;1759632;80;25706;-75
2022/07/01 02:41:30;;;;;;;12.53;8.65;;;;;;;16.81;72.84;96914.94;1741771;80;25677;-76
2022/07/01 02:43:57;;;;;;;10.90;8.85;;;;;;;16.81;72.89;96920.92;1764205;80;25763;-76
2022/07/01 02:46:24;;;;;;;10.45;9.43;;;;;;;16.79;72.96;96926.64;1765160;80;27381;-76
2022/07/01 02:48:50;;;;;;;18.62;10.38;;;;;;;16.78;73.02;96925.02;1771928;80;25764;-75
2022/07/01 02:51:17;;;;;;;10.58;9.48;;;;;;;16.74;73.13;96923.07;1756190;80;25782;-76
2022/07/01 02:53:43;;;;;;;11.88;9.30;;;;;;;16.73;73.13;96923.61;1751540;80;25849;-76
2022/07/01 02:56:10;;;;;;;12.93;9.68;;;;;;;16.69;73.16;96927.93;1752969;80;25802;-76
2022/07/01 02:58:36;;;;;;;15.45;9.18;;;;;;;16.67;73.23;96928.73;1738027;80;28222;-76
2022/07/01 03:01:03;;;;;;;11.00;8.35;;;;;;;16.65;73.22;96926.83;1762114;80;27253;-75
2022/07/01 03:03:30;;;;;;;14.23;8.80;;;;;;;16.64;73.24;96921.10;1766966;80;25404;-75
2022/07/01 03:05:57;;;;;;;11.05;9.88;;;;;;;16.60;73.30;96914.48;1734239;80;25743;-76
2022/07/01 03:08:24;;;;;;;16.02;10.00;;;;;;;16.58;73.40;96916.65;1738708;80;25408;-75
2022/07/01 03:10:50;;;;;;;16.93;10.03;;;;;;;16.57;73.49;96920.45;1758713;80;27413;-76
2022/07/01 03:13:19;;;;;;;11.88;10.03;;;;;;;16.54;73.56;96923.16;1737395;80;25745;-76
2022/07/01 03:15:45;;;;;;;13.62;8.95;;;;;;;16.55;73.69;96926.70;1766806;80;25773;-76
2022/07/01 03:18:12;;;;;;;10.65;8.43;;;;;;;16.53;73.73;96928.35;1756129;80;25750;-76
2022/07/01 03:20:39;;;;;;;12.10;9.25;;;;;;;16.48;73.61;96924.75;1766600;80;25865;-76
2022/07/01 03:23:05;;;;;;;12.28;8.88;;;;;;;16.47;73.74;96915.75;1747439;80;27474;-76
2022/07/01 03:25:32;;;;;;;12.05;9.83;;;;;;;16.49;73.74;96929.13;1758684;80;25298;-75
2022/07/01 03:27:59;;;;;;;12.78;8.75;;;;;;;16.49;73.78;96930.48;1753221;80;25773;-76
2022/07/01 03:30:27;;;;;;;12.30;9.68;;;;;;;16.50;73.82;96925.31;1751806;80;25766;-76
2022/07/01 03:32:53;;;;;;;10.65;8.85;;;;;;;16.50;73.89;96926.67;1740330;80;25451;-75
2022/07/01 03:35:35;;;;;;;13.83;9.60;;;;;;;16.50;73.89;96924.77;1766681;80;27600;-76
2022/07/01 03:38:03;;;;;;;12.93;10.13;;;;;;;16.51;73.98;96917.42;1731313;80;25645;-77
2022/07/01 03:40:31;;;;;;;11.80;8.80;;;;;;;16.51;73.99;96915.52;1772192;80;25765;-76
2022/07/01 03:42:59;;;;;;;14.13;10.00;;;;;;;16.52;74.00;96917.70;1762345;80;25808;-77
2022/07/01 03:45:26;;;;;;;13.95;9.63;;;;;;;16.51;74.05;96927.78;1767417;80;25790;-75
2022/07/01 03:47:52;;;;;;;15.00;10.03;;;;;;;16.55;74.18;96925.34;1728544;80;27416;-76
2022/07/01 03:50:21;;;;;;;11.73;9.88;;;;;;;16.57;74.25;96917.73;1723898;80;26342;-77
2022/07/01 03:52:48;;;;;;;13.75;9.73;;;;;;;16.62;74.31;96924.63;1766605;80;25753;-76
2022/07/01 03:55:16;;;;;;;14.55;9.48;;;;;;;16.64;74.28;96923.83;1722099;80;25779;-76
2022/07/01 03:57:43;;;;;;;10.20;8.95;;;;;;;16.67;74.30;96930.09;1729841;80;26729;-76
2022/07/01 04:00:11;;;;;;;12.63;9.35;;;;;;;16.71;74.39;96924.41;1738345;80;27448;-75
2022/07/01 04:02:37;;;;;;;13.58;10.15;;;;;;;16.76;74.44;96928.55;1749954;80;25934;-75
2022/07/01 04:05:05;;;;;;;10.23;9.10;;;;;;;16.78;74.51;96926.38;1749974;80;25659;-76
2022/07/01 04:07:31;;;;;;;14.95;10.15;;;;;;;16.82;74.46;96923.39;1770575;80;26443;-75
2022/07/01 04:09:58;;;;;;;12.20;9.43;;;;;;;16.87;74.50;96919.35;1742573;80;25722;-76
2022/07/01 04:12:24;;;;;;;12.55;9.20;;;;;;;16.91;74.49;96924.53;1759810;80;28077;-76
2022/07/01 04:14:51;;;;;;;11.18;9.93;;;;;;;16.96;74.43;96930.57;1753851;80;25439;-76
2022/07/01 04:17:17;;;;;;;15.98;10.95;;;;;;;17.01;74.36;96934.70;1749350;80;25859;-76
2022/07/01 04:19:44;;;;;;;15.93;11.33;;;;;;;17.04;74.36;96925.98;1752879;80;26446;-75
2022/07/01 04:24:56;;;;;;;18.40;12.00;;;;;;;17.12;74.49;96922.77;1740763;80;27432;-75
2022/07/01 04:27:23;;;;;;;15.23;11.45;;;;;;;17.14;74.36;96926.60;1737455;80;26480;-76
2022/07/01 04:29:49;;;;;;;16.02;11.90;;;;;;;17.17;74.31;96928.77;1733653;80;25719;-75
2022/07/01 04:32:16;;;;;;;13.25;10.53;;;;;;;17.22;74.33;96923.36;1748101;80;26366;-76
2022/07/01 04:34:42;;;;;;;18.50;11.85;;;;;;;17.25;74.25;96923.66;1769109;80;25640;-77
2022/07/01 04:37:09;;;;;;;13.13;11.63;;;;;;;17.29;74.27;96927.48;1729430;80;28061;-76
2022/07/01 04:39:35;;;;;;;16.82;10.90;;;;;;;17.35;74.28;96922.05;1749692;80;25763;-76
2022/07/01 04:42:02;;;;;;;11.60;10.05;;;;;;;17.40;74.27;96924.79;1756343;80;25729;-76
2022/07/01 04:44:32;;;;;;;12.43;10.50;;;;;;;17.45;74.24;96931.10;1767774;80;25856;-76
2022/07/01 04:47:00;;;;;;;17.77;11.88;;;;;;;17.51;74.17;96932.75;1778645;80;25788;-76
2022/07/01 04:49:27;;;;;;;16.23;10.95;;;;;;;17.57;74.03;96928.97;1731238;80;27415;-76
2022/07/01 04:51:55;;;;;;;15.30;11.75;;;;;;;17.62;74.06;96933.09;1776082;80;25801;-75
2022/07/01 04:54:22;;;;;;;15.58;11.05;;;;;;;17.69;74.05;96921.95;1774612;80;25825;-75
2022/07/01 04:56:48;;;;;;;18.95;11.85;;;;;;;17.76;74.01;96929.32;1763001;80;26558;-75
2022/07/01 04:59:16;;;;;;;21.68;12.23;;;;;;;17.83;74.06;96925.81;1733449;80;25747;-76
2022/07/01 05:01:44;;;;;;;16.95;12.33;;;;;;;17.90;74.01;96926.91;1757927;80;28278;-76
2022/07/01 05:04:12;;;;;;;20.90;12.45;;;;;;;17.98;73.97;96923.13;1732816;80;25946;-75
2022/07/01 05:06:38;;;;;;;14.30;10.53;;;;;;;18.07;73.83;96924.77;1747207;80;25738;-76
2022/07/01 05:09:05;;;;;;;13.40;11.60;;;;;;;18.17;73.79;96928.87;1721998;80;25732;-76
2022/07/01 05:11:32;;;;;;;12.78;10.48;;;;;;;18.25;73.56;96925.60;1738026;80;25809;-75
2022/07/01 05:13:58;;;;;;;19.42;11.00;;;;;;;18.34;73.53;96925.91;1761965;80;27505;-76
2022/07/01 05:16:25;;;;;;;14.55;10.78;;;;;;;18.43;73.37;96912.51;1746410;80;25900;-77
2022/07/01 05:24:23;;;;;;;11.22;9.75;;;;;;;18.75;73.56;96914.43;1740172;80;25874;-75
2022/07/01 05:26:50;;;;;;;11.88;10.63;;;;;;;18.87;73.59;96910.86;1722166;80;27588;-75
2022/07/01 05:29:17;;;;;;;13.98;10.72;;;;;;;18.97;73.51;96910.83;1762121;80;26406;-76
2022/07/01 05:31:43;;;;;;;15.15;10.93;;;;;;;19.07;73.35;96903.17;1759940;80;25762;-75
2022/07/01 05:34:10;;;;;;;13.05;11.18;;;;;;;19.19;73.36;96908.34;1769815;80;25852;-75
2022/07/01 05:36:36;;;;;;;14.95;10.70;;;;;;;19.29;73.31;96895.98;1745220;80;25701;-75
2022/07/01 05:39:04;;;;;;;12.98;11.22;;;;;;;19.39;73.14;96894.58;1766481;80;27378;-75
2022/07/01 05:41:31;;;;;;;14.23;12.45;;;;;;;19.50;73.13;96892.09;1730845;80;25783;-75
2022/07/01 05:43:57;;;;;;;12.78;11.45;;;;;;;19.61;72.97;96887.39;1748298;80;25877;-75
2022/07/01 05:46:24;;;;;;;13.35;12.05;;;;;;;19.71;72.85;96893.63;1738067;80;25785;-75
2022/07/01 05:48:51;;;;;;;15.45;11.38;;;;;;;19.82;72.71;96890.83;1731624;80;26398;-75
2022/07/01 05:51:17;;;;;;;14.07;11.80;;;;;;;19.92;72.48;96886.69;1744457;80;27426;-75
2022/07/01 05:53:44;;;;;;;14.13;12.43;;;;;;;20.03;72.52;96888.25;1736309;80;25822;-75
2022/07/01 05:56:11;;;;;;;15.50;10.50;;;;;;;20.17;72.36;96893.89;1730168;82;25736;-75
2022/07/01 05:58:37;;;;;;;17.60;11.38;;;;;;;20.27;71.87;96885.07;1728248;82;25810;-75
2022/07/01 06:01:04;;;;;;;17.37;11.45;;;;;;;20.36;71.47;96881.19;1707299;82;26004;-75
2022/07/01 06:03:30;;;;;;;15.53;11.68;;;;;;;20.46;71.33;96880.55;1797369;79;27397;-75
2022/07/01 06:05:57;;;;;;;12.53;10.85;;;;;;;20.58;71.19;96876.61;1792838;79;25721;-75
2022/07/01 06:08:23;;;;;;;15.23;11.25;;;;;;;20.68;70.87;96868.28;1771303;79;25766;-75
2022/07/01 06:10:50;;;;;;;13.15;11.08;;;;;;;20.80;70.92;96871.45;1735713;81;25853;-75
2022/07/01 06:13:17;;;;;;;12.20;11.05;;;;;;;20.91;70.93;96871.62;1725830;81;25774;-75
2022/07/01 06:15:43;;;;;;;13.58;10.93;;;;;;;21.01;70.64;96877.58;1714432;82;28299;-75
2022/07/01 06:18:10;;;;;;;12.82;11.40;;;;;;;21.10;70.22;96865.66;1728358;81;25709;-75
2022/07/01 06:20:36;;;;;;;12.65;11.35;;;;;;;21.20;69.98;96869.69;1732503;81;25839;-75
2022/07/01 06:23:03;;;;;;;15.43;11.75;;;;;;;21.32;69.69;96862.97;1695825;83;26516;-76
2022/07/01 06:25:30;;;;;;;15.58;11.38;;;;;;;21.43;69.38;96865.84;1702864;83;25979;-76
2022/07/01 06:27:56;;;;;;;14.30;11.18;;;;;;;21.54;69.25;96863.23;1727669;82;27652;-77
2022/07/01 06:30:23;;;;;;;14.78;11.30;;;;;;;21.67;69.49;96865.26;1706902;84;25839;-77
2022/07/01 06:32:49;;;;;;;12.20;10.85;;;;;;;21.90;68.92;96849.82;1727267;82;25738;-77
2022/07/01 06:35:16;;;;;;;16.60;10.98;;;;;;;21.90;68.92;96849.82;1719178;82;25821;-76
2022/07/01 06:37:43;;;;;;;14.18;11.65;;;;;;;21.98;69.05;96845.02;1731535;82;26180;-76
2022/07/01 06:40:10;;;;;;;17.62;11.57;;;;;;;22.16;68.61;96859.36;1710746;82;26868;-75
2022/07/01 06:42:37;;;;;;;13.80;10.78;;;;;;;22.29;68.50;96849.53;1701628;83;25728;-77
2022/07/01 06:45:05;;;;;;;11.90;10.53;;;;;;;22.43;68.10;96842.71;1695982;83;26574;-75
2022/07/01 06:47:32;;;;;;;16.37;11.43;;;;;;;22.55;67.73;96839.75;1700177;83;25844;-76
2022/07/01 06:49:58;;;;;;;13.78;10.55;;;;;;;22.70;67.72;96844.73;1682448;83;25851;-77
2022/07/01 06:52:25;;;;;;;11.18;9.80;;;;;;;22.89;67.11;96841.36;1698387;83;27660;-76
2022/07/01 06:54:51;;;;;;;11.03;9.00;;;;;;;22.99;66.23;96838.41;1708454;83;25674;-76
2022/07/01 06:57:18;;;;;;;13.30;10.18;;;;;;;23.09;65.58;96836.84;1692761;83;26037;-76
2022/07/01 06:59:45;;;;;;;14.05;10.25;;;;;;;23.17;65.79;96821.00;1712349;82;25944;-76
2022/07/01 07:02:12;;;;;;;14.40;9.95;;;;;;;23.43;65.54;96839.73;1691894;83;25248;-76
2022/07/01 07:04:40;;;;;;;13.15;10.53;;;;;;;23.62;65.48;96829.45;1708476;82;25756;-76
2022/07/01 07:07:07;;;;;;;12.65;11.25;;;;;;;23.84;65.85;96835.01;1708996;81;26461;-75
2022/07/01 07:09:33;;;;;;;12.45;11.15;;;;;;;24.00;65.61;96837.68;1709278;82;25683;-76
2022/07/01 07:12:00;;;;;;;14.33;10.75;;;;;;;24.13;65.30;96836.56;1710978;81;26495;-76
2022/07/01 07:14:27;;;;;;;12.50;10.98;;;;;;;24.28;65.67;96835.64;1708008;82;25877;-77
2022/07/01 07:16:54;;;;;;;11.88;10.63;;;;;;;24.38;65.37;96830.47;1708752;82;27595;-76
2022/07/01 07:19:20;;;;;;;11.38;10.35;;;;;;;24.50;65.15;96827.95;1710203;82;25670;-76
2022/07/01 07:21:47;;;;;;;15.75;10.05;;;;;;;24.61;64.92;96824.37;1709617;82;25824;-76
2022/07/01 07:24:14;;;;;;;14.90;10.53;;;;;;;24.72;64.52;96823.78;1708179;81;25790;-76
2022/07/01 07:26:40;;;;;;;13.62;10.38;;;;;;;24.84;64.45;96822.38;1709071;81;25948;-75
2022/07/01 07:29:07;;;;;;;13.13;10.58;;;;;;;24.96;64.17;96822.64;1708727;82;27562;-76
2022/07/01 07:31:34;;;;;;;12.98;11.25;;;;;;;25.10;64.15;96819.20;1708233;81;25418;-76
2022/07/01 07:34:00;;;;;;;11.95;9.58;;;;;;;25.24;63.70;96822.65;1710105;82;25900;-76
2022/07/01 07:36:27;;;;;;;13.28;10.00;;;;;;;25.38;63.67;96818.39;1712738;82;25735;-76
2022/07/01 07:38:53;;;;;;;12.28;9.95;;;;;;;25.51;63.32;96824.36;1728114;81;25742;-76
2022/07/01 07:41:20;;;;;;;10.82;9.58;;;;;;;25.64;62.83;96819.88;1725514;82;28362;-76
2022/07/01 07:43:48;;;;;;;11.63;9.23;;;;;;;25.77;62.58;96814.77;1732328;81;26089;-76
2022/07/01 07:46:15;;;;;;;10.78;9.60;;;;;;;25.90;62.52;96816.58;1692831;84;25704;-76
2022/07/01 07:48:43;;;;;;;12.93;9.50;;;;;;;26.05;61.84;96812.52;1711454;82;25739;-76
2022/07/01 07:51:14;;;;;;;11.65;9.43;;;;;;;26.17;61.62;96809.35;1731555;82;25385;-76
2022/07/01 07:53:39;;;;;;;13.15;9.60;;;;;;;26.32;61.08;96811.41;1726468;82;27639;-77
2022/07/01 07:56:05;;;;;;;12.03;9.95;;;;;;;26.45;61.00;96802.91;1724853;82;25737;-77
2022/07/01 07:58:32;;;;;;;13.30;10.50;;;;;;;26.64;60.82;96805.33;1731335;82;25815;-76
2022/07/01 08:00:58;;;;;;;12.20;9.60;;;;;;;26.83;60.31;96804.37;1687661;83;25762;-77
2022/07/01 08:03:25;;;;;;;12.30;9.30;;;;;;;27.12;60.23;96804.22;1719399;82;25658;-77
2022/07/01 08:05:52;;;;;;;13.00;10.20;;;;;;;27.52;60.06;96801.34;1728969;82;27405;-77
2022/07/01 08:08:19;;;;;;;11.83;9.73;;;;;;;28.00;59.38;96800.06;1705966;83;25461;-75
2022/07/01 08:10:45;;;;;;;11.18;9.08;;;;;;;28.49;58.69;96803.09;1731568;82;26495;-76
2022/07/01 08:13:12;;;;;;;9.40;8.30;;;;;;;28.97;57.72;96801.86;1727605;82;25836;-76
2022/07/01 08:15:39;;;;;;;12.15;8.23;;;;;;;29.50;57.16;96805.61;1726791;82;25724;-75
2022/07/01 08:18:06;;;;;;;9.85;8.13;;;;;;;29.97;56.09;96807.31;1731305;82;27415;-76
2022/07/01 08:20:33;;;;;;;13.18;8.30;;;;;;;30.43;55.16;96803.10;1719280;82;25753;-75
2022/07/01 08:22:59;;;;;;;11.08;7.65;;;;;;;30.86;54.32;96798.76;1731540;82;25748;-75
2022/07/01 08:25:26;;;;;;;18.48;7.67;;;;;;;31.28;53.84;96799.65;1718783;82;26269;-75
2022/07/01 08:27:52;;;;;;;11.55;7.47;;;;;;;31.67;52.98;96794.47;1692860;84;26133;-75
2022/07/01 08:30:19;;;;;;;11.18;7.08;;;;;;;32.06;52.11;96804.33;1703549;83;27456;-75
2022/07/01 08:32:45;;;;;;;8.10;7.17;;;;;;;32.44;51.41;96802.18;1719135;82;25681;-75
2022/07/01 08:35:12;;;;;;;9.38;7.03;;;;;;;32.74;50.47;96798.20;1731610;82;25691;-75
2022/07/01 08:37:39;;;;;;;13.25;7.08;;;;;;;33.00;49.60;96801.09;1731522;82;25835;-75
2022/07/01 08:40:07;;;;;;;13.03;6.80;;;;;;;33.30;48.83;96800.45;1713307;82;26326;-76
2022/07/01 08:42:33;;;;;;;10.30;6.12;;;;;;;33.60;48.51;96803.55;1688593;83;27428;-76
2022/07/01 08:45:00;;;;;;;11.33;6.33;;;;;;;33.95;47.87;96799.11;1698246;83;26501;-75
2022/07/01 08:47:27;;;;;;;12.43;6.10;;;;;;;34.30;46.45;96800.80;1731279;82;25872;-75
2022/07/01 08:49:53;;;;;;;8.78;5.15;;;;;;;34.61;45.17;96794.00;1724343;82;25745;-76
2022/07/01 08:52:20;;;;;;;9.00;5.10;;;;;;;34.92;44.37;96792.75;1683167;83;25856;-76
2022/07/01 08:54:47;;;;;;;6.58;4.62;;;;;;;35.24;44.01;96788.28;1692880;83;27399;-76
2022/07/01 08:57:22;;;;;;;9.08;5.30;;;;;;;35.55;42.18;96793.16;1663064;84;25700;-77
2022/07/01 09:00:05;;;;;;;6.42;4.40;;;;;;;35.66;41.56;96794.05;1713034;82;25748;-77
2022/07/01 09:03:00;;;;;;;8.98;4.75;;;;;;;35.94;40.71;96785.86;1700765;83;25810;-76
2022/07/01 09:05:29;;;;;;;6.15;4.58;;;;;;;36.07;39.88;96790.55;1681461;83;25816;-76
2022/07/01 09:08:03;;;;;;;10.68;4.62;;;;;;;36.38;39.54;96784.91;1702534;82;27444;-77
2022/07/01 09:10:35;;;;;;;11.03;4.62;;;;;;;36.64;38.54;96788.83;1635238;86;26022;-77
2022/07/01 09:13:08;;;;;;;10.10;4.78;;;;;;;36.90;38.16;96782.10;1667317;85;25783;-77
2022/07/01 09:15:36;;;;;;;7.87;4.35;;;;;;;37.13;37.59;96779.73;1682979;84;26029;-76
2022/07/01 09:18:12;;;;;;;6.10;4.40;;;;;;;37.40;36.94;96783.00;1676653;85;25760;-76
2022/07/01 09:20:45;;;;;;;8.03;4.83;;;;;;;37.66;36.26;96785.23;1665026;85;27481;-76
2022/07/01 09:23:16;;;;;;;5.53;4.62;;;;;;;37.83;35.31;96786.61;1643392;86;25797;-77
2022/07/01 09:25:51;;;;;;;12.43;4.65;;;;;;;38.10;34.33;96791.83;1647442;86;25987;-77
2022/07/01 09:28:24;;;;;;;6.95;4.75;;;;;;;38.31;33.34;96786.72;1647217;86;25844;-77
2022/07/01 09:30:53;;;;;;;10.75;4.92;;;;;;;38.50;32.76;96789.08;1649329;86;25814;-76
2022/07/01 09:33:26;;;;;;;10.75;4.87;;;;;;;38.71;32.23;96784.77;1649657;85;27604;-76
2022/07/01 09:35:54;;;;;;;10.05;4.90;;;;;;;38.90;31.70;96791.30;1654736;85;25861;-77
2022/07/01 09:38:23;;;;;;;7.25;5.00;;;;;;;39.08;31.62;96791.85;1650944;85;25819;-77
2022/07/01 09:41:00;;;;;;;6.58;4.62;;;;;;;39.25;31.16;96795.14;1650541;85;25803;-77
2022/07/01 09:43:35;;;;;;;8.50;4.60;;;;;;;39.33;30.64;96789.66;1651026;86;25856;-78
2022/07/01 09:46:08;;;;;;;6.75;4.80;;;;;;;39.47;29.98;96789.58;1657522;86;27547;-76
2022/07/01 09:48:40;;;;;;;9.28;4.75;;;;;;;39.56;29.58;96791.92;1641673;85;25890;-77
2022/07/01 09:51:09;;;;;;;9.25;4.75;;;;;;;39.56;29.57;96788.48;1654236;86;25993;-77
2022/07/01 09:53:36;;;;;;;6.25;4.80;;;;;;;39.60;29.41;96787.86;1652302;85;25910;-76
2022/07/01 09:56:03;;;;;;;8.68;4.87;;;;;;;39.67;29.47;96784.77;1650851;85;25780;-77
2022/07/01 09:58:32;;;;;;;6.97;5.15;;;;;;;39.70;29.35;96785.34;1601419;86;27499;-76
2022/07/01 10:00:59;;;;;;;10.15;4.80;;;;;;;39.55;29.30;96793.94;1626548;86;25860;-77
2022/07/01 10:03:27;;;;;;;8.68;4.85;;;;;;;39.08;28.92;96789.83;1631550;87;25735;-76
2022/07/01 10:06:26;;;;;;;5.42;4.87;;;;;;;38.54;29.14;96789.88;1633809;85;25942;-77
2022/07/01 10:09:21;;;;;;;7.70;5.22;;;;;;;38.18;29.29;96791.39;1606747;88;25918;-80
2022/07/01 10:12:18;;;;;;;9.20;5.33;;;;;;;37.64;30.00;96784.83;1617925;88;27759;-79
2022/07/01 10:14:45;;;;;;;9.40;5.20;;;;;;;37.37;29.89;96789.42;1617925;88;25720;-82
2022/07/01 10:17:32;;;;;;;7.00;5.12;;;;;;;37.21;29.69;96789.00;1614266;88;25706;-81
2022/07/01 10:20:13;;;;;;;7.25;5.03;;;;;;;37.08;29.82;96783.52;1619149;85;26502;-81
2022/07/01 10:22:41;;;;;;;8.75;5.10;;;;;;;37.20;30.14;96785.17;1653935;85;25888;-79
2022/07/01 10:25:36;;;;;;;5.85;4.67;;;;;;;37.08;29.99;96788.55;1659408;86;28559;-77
2022/07/01 10:28:19;;;;;;;6.85;5.00;;;;;;;36.79;30.15;96776.45;1647768;86;25335;-81
2022/07/01 10:31:09;;;;;;;8.35;4.90;;;;;;;36.44;30.04;96774.91;1647789;86;25863;-80
2022/07/01 10:33:49;;;;;;;9.88;5.15;;;;;;;36.23;30.12;96779.03;1660136;86;26515;-80
2022/07/01 10:36:32;;;;;;;11.95;5.20;;;;;;;35.89;30.48;96770.77;1554469;91;25843;-80
2022/07/01 10:39:07;;;;;;;9.03;5.20;;;;;;;35.89;30.80;96775.58;1553295;91;27484;-79
2022/07/01 10:41:56;;;;;;;8.58;4.60;;;;;;;36.14;30.75;96775.72;1555434;91;25902;-80
2022/07/01 10:44:25;;;;;;;10.60;4.92;;;;;;;36.48;30.50;96776.30;1535467;91;25888;-80
2022/07/01 10:46:59;;;;;;;9.75;4.87;;;;;;;36.85;30.27;96765.61;1535746;92;25903;-80
2022/07/01 10:49:51;;;;;;;11.85;4.22;;;;;;;37.14;29.72;96763.66;1538318;92;25831;-80
2022/07/01 10:52:18;;;;;;;6.58;4.47;;;;;;;37.29;29.53;96756.06;1548302;92;28221;-80
2022/07/01 10:54:49;;;;;;;7.15;4.05;;;;;;;37.54;29.13;96757.47;1533790;92;25822;-80
2022/07/01 10:57:19;;;;;;;;;;;;;;;37.66;28.47;96761.30;1541474;92;25887;-80
2022/07/01 10:59:50;;;;;;;8.75;4.75;;;;;;;37.83;27.83;96763.27;1524937;93;25921;-80
2022/07/01 11:02:22;;;;;;;11.80;7.53;;;;;;;37.93;28.66;96768.08;1526867;93;25822;-79
2022/07/01 11:04:52;;;;;;;9.53;7.17;;;;;;;37.99;29.69;96777.73;1526632;93;28083;-79
2022/07/01 11:07:18;;;;;;;8.95;8.05;;;;;;;37.87;30.33;96780.98;1526261;93;25999;-78
2022/07/01 11:09:45;;;;;;;11.05;8.30;;;;;;;37.81;30.95;96783.39;1524742;93;26014;-79
2022/07/01 11:12:16;;;;;;;11.73;8.20;;;;;;;37.48;31.38;96775.34;1533881;89;25851;-77
2022/07/01 11:14:44;;;;;;;11.57;7.75;;;;;;;36.79;32.25;96787.70;1577345;89;25981;-79
2022/07/01 11:17:10;;;;;;;12.50;8.25;;;;;;;36.40;32.83;96786.72;1569565;89;27441;-77
2022/07/01 11:19:37;;;;;;;8.90;7.92;;;;;;;36.08;33.44;96784.55;1639189;86;25775;-78
2022/07/01 11:22:05;;;;;;;8.25;7.45;;;;;;;35.86;33.62;96791.23;1651926;85;25868;-78
2022/07/01 11:24:32;;;;;;;14.30;7.97;;;;;;;35.65;33.82;96795.24;1636114;86;25886;-77
2022/07/01 11:27:09;;;;;;;11.18;7.33;;;;;;;35.30;34.19;96790.95;1632953;85;25871;-81
2022/07/01 11:29:35;;;;;;;12.90;7.62;;;;;;;34.94;34.81;96790.38;1644274;85;28402;-78
2022/07/01 11:32:03;;;;;;;8.93;7.65;;;;;;;34.64;35.21;96785.64;1644810;82;25395;-78
2022/07/01 11:34:30;;;;;;;13.08;8.10;;;;;;;34.39;35.73;96790.14;1703973;81;25795;-79
2022/07/01 11:39:43;;;;;;;9.75;7.20;;;;;;;33.79;37.48;96771.90;1718553;82;26640;-79
2022/07/01 11:42:11;;;;;;;9.80;7.95;;;;;;;33.71;38.01;96779.92;1709282;82;27615;-78